createdAt,value
2023-03-24T00:03:25.976Z,12.07
2023-03-24T00:06:58.555Z,8.27
2023-03-24T00:10:34.746Z,11.13
2023-03-24T00:14:07.185Z,9.07
2023-03-24T00:17:39.744Z,11.40
2023-03-24T00:21:13.587Z,10.55
2023-03-24T00:24:47.987Z,9.07
2023-03-24T00:28:20.077Z,9.07
2023-03-24T00:31:55.767Z,10.15
2023-03-24T00:35:28.543Z,9.55
2023-03-24T00:39:00.552Z,12.43
2023-03-24T00:42:37.169Z,11.13
2023-03-24T00:46:11.793Z,10.75
2023-03-24T00:49:47.038Z,12.93
2023-03-24T00:53:23.461Z,13.65
2023-03-24T00:56:56.032Z,10.63
2023-03-24T01:00:28.257Z,11.63
2023-03-24T01:04:01.569Z,9.13
2023-03-24T01:07:34.166Z,9.43
2023-03-24T01:11:07.018Z,10.23
2023-03-24T01:14:39.452Z,9.47
2023-03-24T01:18:16.015Z,10.00
2023-03-24T01:21:52.766Z,9.82
2023-03-24T01:25:26.084Z,11.80
2023-03-24T01:28:59.265Z,9.53
2023-03-24T01:32:32.982Z,10.60
2023-03-24T01:36:07.074Z,9.88
2023-03-24T01:39:39.138Z,8.90
2023-03-24T01:43:20.383Z,9.02
2023-03-24T01:46:52.329Z,9.07
2023-03-24T01:50:24.764Z,8.90
2023-03-24T01:54:01.622Z,10.63
2023-03-24T01:57:38.249Z,8.43
2023-03-24T02:01:11.118Z,9.48
2023-03-24T02:04:54.208Z,7.53
2023-03-24T02:08:52.721Z,10.82
2023-03-24T02:12:25.170Z,8.93
2023-03-24T02:16:18.306Z,9.77
2023-03-24T02:20:11.647Z,9.50
2023-03-24T02:24:01.602Z,9.70
2023-03-24T02:27:52.135Z,9.73
2023-03-24T02:31:33.470Z,11.77
2023-03-24T02:35:23.929Z,8.80
2023-03-24T02:39:17.329Z,7.45
2023-03-24T02:43:19.549Z,7.07
2023-03-24T02:47:12.519Z,8.93
2023-03-24T02:50:53.281Z,9.95
2023-03-24T02:54:37.662Z,9.90
2023-03-24T02:58:49.572Z,9.77
2023-03-24T03:02:29.998Z,10.65
2023-03-24T03:06:12.256Z,10.27
2023-03-24T03:09:54.034Z,9.70
2023-03-24T03:13:25.820Z,10.23
2023-03-24T03:17:06.479Z,11.85
2023-03-24T03:20:50.845Z,12.63
2023-03-24T03:24:27.773Z,11.33
2023-03-24T03:28:03.861Z,9.77
2023-03-24T03:31:41.948Z,9.60
2023-03-24T03:35:22.999Z,11.27
2023-03-24T03:39:06.677Z,10.63
2023-03-24T03:42:39.930Z,8.25
2023-03-24T03:46:12.741Z,8.60
2023-03-24T03:49:45.288Z,10.50
2023-03-24T03:53:21.480Z,8.43
2023-03-24T03:56:55.396Z,12.07
2023-03-24T04:00:28.396Z,10.77
2023-03-24T04:04:08.967Z,11.07
2023-03-24T04:07:58.253Z,12.05
2023-03-24T04:11:38.958Z,12.13
2023-03-24T04:15:20.388Z,13.18
2023-03-24T04:19:05.803Z,10.35
2023-03-24T04:23:00.592Z,11.05
2023-03-24T04:26:41.445Z,11.03
2023-03-24T04:30:33.067Z,14.00
2023-03-24T04:34:13.501Z,9.32
2023-03-24T04:37:45.868Z,10.50
2023-03-24T04:41:19.876Z,10.77
2023-03-24T04:44:52.231Z,11.95
2023-03-24T04:48:26.255Z,11.63
2023-03-24T04:51:58.349Z,10.00
2023-03-24T04:55:33.102Z,8.70
2023-03-24T04:59:07.119Z,8.05
2023-03-24T05:02:38.886Z,10.17
2023-03-24T05:06:11.347Z,10.55
2023-03-24T05:09:43.284Z,9.95
2023-03-24T05:13:15.848Z,9.67
2023-03-24T05:16:47.879Z,9.33
2023-03-24T05:20:20.788Z,12.50
2023-03-24T05:23:52.863Z,11.00
2023-03-24T05:27:26.024Z,11.13
2023-03-24T05:30:58.300Z,9.35
2023-03-24T05:34:31.216Z,9.77
2023-03-24T05:38:03.486Z,9.53
2023-03-24T05:41:35.503Z,7.40
2023-03-24T05:45:08.846Z,9.85
2023-03-24T05:48:40.888Z,11.25
2023-03-24T05:52:16.109Z,10.87
2023-03-24T05:55:48.051Z,9.95
2023-03-24T05:59:20.273Z,9.38
2023-03-24T06:02:52.275Z,7.27
2023-03-24T06:06:24.622Z,8.98
2023-03-24T06:09:58.215Z,8.35
2023-03-24T06:13:31.184Z,10.25
2023-03-24T06:17:03.451Z,7.27
2023-03-24T06:20:36.303Z,7.45
2023-03-24T06:24:08.570Z,9.38
2023-03-24T06:27:46.219Z,10.03
2023-03-24T06:31:29.564Z,6.45
2023-03-24T06:35:01.937Z,6.40
2023-03-24T06:38:37.076Z,7.50
2023-03-24T06:42:09.035Z,7.22
2023-03-24T06:45:41.323Z,8.65
2023-03-24T06:49:13.122Z,8.85
2023-03-24T06:52:45.405Z,7.77
2023-03-24T06:56:20.135Z,7.32
2023-03-24T06:59:52.961Z,10.68
2023-03-24T07:03:25.238Z,10.57
2023-03-24T07:07:12.450Z,11.88
2023-03-24T07:10:49.604Z,13.32
2023-03-24T07:14:22.312Z,9.95
2023-03-24T07:17:54.479Z,10.43
2023-03-24T07:21:26.235Z,14.27
2023-03-24T07:25:01.696Z,11.60
2023-03-24T07:28:33.730Z,8.53
2023-03-24T07:32:08.046Z,9.83
2023-03-24T07:35:41.110Z,9.35
2023-03-24T07:39:13.568Z,7.43
2023-03-24T07:42:45.595Z,6.67
2023-03-24T07:46:18.122Z,9.40
2023-03-24T07:49:51.169Z,8.77
2023-03-24T07:53:23.256Z,6.80
2023-03-24T07:56:55.294Z,7.03
2023-03-24T08:00:29.606Z,7.23
2023-03-24T08:04:02.391Z,6.82
2023-03-24T08:07:35.189Z,8.15
2023-03-24T08:11:07.425Z,8.60
2023-03-24T08:14:39.654Z,8.38
2023-03-24T08:18:11.537Z,12.57
2023-03-24T08:21:43.952Z,9.15
2023-03-24T08:25:18.829Z,8.43
2023-03-24T08:28:51.230Z,9.35
2023-03-24T08:32:23.391Z,9.88
2023-03-24T08:35:58.330Z,7.57
2023-03-24T08:39:32.536Z,5.87
2023-03-24T08:43:08.818Z,5.25
2023-03-24T08:46:41.067Z,5.00
2023-03-24T08:50:13.737Z,8.47
2023-03-24T08:53:45.545Z,7.30
2023-03-24T08:57:18.030Z,4.95
2023-03-24T09:00:49.853Z,8.68
2023-03-24T09:04:22.106Z,6.07
2023-03-24T09:07:54.457Z,5.63
2023-03-24T09:11:26.627Z,5.20
2023-03-24T09:14:59.063Z,6.43
2023-03-24T09:18:31.030Z,6.90
2023-03-24T09:22:03.169Z,7.33
2023-03-24T09:25:34.945Z,6.22
2023-03-24T09:29:07.437Z,5.50
2023-03-24T09:32:42.095Z,5.80
2023-03-24T09:36:13.978Z,6.67
2023-03-24T09:39:46.342Z,6.90
2023-03-24T09:43:33.764Z,5.38
2023-03-24T09:47:33.845Z,5.70
2023-03-24T09:51:13.544Z,5.77
2023-03-24T09:54:56.328Z,6.05
2023-03-24T09:58:31.556Z,5.68
2023-03-24T10:02:12.470Z,7.10
2023-03-24T10:05:52.161Z,7.80
2023-03-24T10:09:29.735Z,6.93
2023-03-24T10:13:08.005Z,6.18
2023-03-24T10:17:00.597Z,5.00
2023-03-24T10:20:39.355Z,6.57
2023-03-24T10:24:32.609Z,14.45
2023-03-24T10:28:21.252Z,6.73
2023-03-24T10:31:59.090Z,12.47
2023-03-24T10:35:39.266Z,7.10
2023-03-24T10:39:19.968Z,6.65
2023-03-24T10:43:07.126Z,9.20
2023-03-24T10:46:48.265Z,6.17
2023-03-24T10:50:25.442Z,5.10
2023-03-24T10:54:20.204Z,5.00
2023-03-24T10:57:59.929Z,7.63
2023-03-24T11:01:32.136Z,4.85
2023-03-24T11:05:16.913Z,8.00
2023-03-24T11:09:19.379Z,6.25
2023-03-24T11:12:54.799Z,10.07
2023-03-24T11:16:45.843Z,7.60
2023-03-24T11:20:39.523Z,5.30
2023-03-24T11:24:15.858Z,7.67
2023-03-24T11:27:48.535Z,6.17
2023-03-24T11:31:31.620Z,6.05
2023-03-24T11:35:09.233Z,6.68
2023-03-24T11:38:41.161Z,8.40
2023-03-24T11:42:18.024Z,8.77
2023-03-24T11:46:17.270Z,8.60
2023-03-24T11:50:00.688Z,10.73
2023-03-24T11:53:44.950Z,7.75
2023-03-24T11:57:29.366Z,5.00
2023-03-24T12:01:10.751Z,6.35
2023-03-24T12:05:31.216Z,7.22
2023-03-24T12:09:32.865Z,5.77
2023-03-24T12:13:19.012Z,5.93
2023-03-24T12:17:23.693Z,7.32
2023-03-24T12:20:58.990Z,8.48
2023-03-24T12:24:31.107Z,6.67
2023-03-24T12:28:22.683Z,6.50
2023-03-24T12:32:15.099Z,7.57
2023-03-24T12:35:56.276Z,6.68
2023-03-24T12:39:43.138Z,5.17
2023-03-24T12:43:47.495Z,6.55
2023-03-24T12:47:38.145Z,5.05
2023-03-24T12:51:20.337Z,4.50
2023-03-24T12:55:05.245Z,4.23
2023-03-24T12:58:53.881Z,3.88
2023-03-24T13:02:35.471Z,4.20
2023-03-24T13:06:17.644Z,4.57
2023-03-24T13:10:21.946Z,4.57
2023-03-24T13:13:58.549Z,3.72
2023-03-24T13:17:38.101Z,4.57
2023-03-24T13:21:14.183Z,5.73
2023-03-24T13:24:47.865Z,5.35
2023-03-24T13:28:31.076Z,3.53
2023-03-24T13:32:11.282Z,4.13
2023-03-24T13:36:07.656Z,4.47
2023-03-24T13:39:43.573Z,3.75
2023-03-24T13:43:23.911Z,3.30
2023-03-24T13:47:00.996Z,3.23
2023-03-24T13:50:34.816Z,3.17
2023-03-24T13:54:23.618Z,3.90
2023-03-24T13:58:04.883Z,2.45
2023-03-24T14:01:41.006Z,3.93
2023-03-24T14:05:22.331Z,2.83
2023-03-24T14:09:06.079Z,6.55
2023-03-24T14:12:55.014Z,3.78
2023-03-24T14:16:41.238Z,4.47
2023-03-24T14:20:25.773Z,3.03
2023-03-24T14:23:59.650Z,3.60
2023-03-24T14:27:38.114Z,3.03
2023-03-24T14:31:16.078Z,4.10
2023-03-24T14:34:55.907Z,3.80
2023-03-24T14:38:28.152Z,4.35
2023-03-24T14:42:00.450Z,3.15
2023-03-24T14:45:41.634Z,3.30
2023-03-24T14:49:25.894Z,3.23
2023-03-24T14:53:01.126Z,3.08
2023-03-24T14:56:39.446Z,4.93
2023-03-24T15:00:35.943Z,6.10
2023-03-24T15:04:09.497Z,4.33
2023-03-24T15:07:43.818Z,5.65
2023-03-24T15:11:18.822Z,6.28
2023-03-24T15:14:51.533Z,7.23
2023-03-24T15:18:23.819Z,7.50
2023-03-24T15:22:04.339Z,5.38
2023-03-24T15:25:43.555Z,5.13
2023-03-24T15:29:15.640Z,2.60
2023-03-24T15:32:49.521Z,2.92
2023-03-24T15:36:22.795Z,3.45
2023-03-24T15:40:05.228Z,3.95
2023-03-24T15:43:51.491Z,4.20
2023-03-24T15:47:27.719Z,6.00
2023-03-24T15:51:03.773Z,6.55
2023-03-24T15:54:41.360Z,8.77
2023-03-24T15:58:28.526Z,4.37
2023-03-24T16:02:01.574Z,4.15
2023-03-24T16:05:34.687Z,5.22
2023-03-24T16:09:14.666Z,3.70
2023-03-24T16:12:46.671Z,2.97
2023-03-24T16:16:31.557Z,4.70
2023-03-24T16:20:09.223Z,4.28
2023-03-24T16:23:42.381Z,2.23
2023-03-24T16:27:15.183Z,2.97
2023-03-24T16:30:51.956Z,3.10
2023-03-24T16:34:24.399Z,4.50
2023-03-24T16:37:57.369Z,4.43
2023-03-24T16:41:29.445Z,5.00
2023-03-24T16:45:01.581Z,4.30
2023-03-24T16:48:34.780Z,3.70
2023-03-24T16:52:12.078Z,4.93
2023-03-24T16:55:45.347Z,7.30
2023-03-24T16:59:19.605Z,5.70
2023-03-24T17:02:54.194Z,4.23
2023-03-24T17:06:28.118Z,5.30
2023-03-24T17:10:00.253Z,5.72
2023-03-24T17:13:32.579Z,8.07
2023-03-24T17:17:11.097Z,6.53
2023-03-24T17:20:45.915Z,4.95
2023-03-24T17:24:18.067Z,7.60
2023-03-24T17:27:51.506Z,4.70
2023-03-24T17:31:23.791Z,8.43
2023-03-24T17:34:55.814Z,7.90
2023-03-24T17:38:28.447Z,7.17
2023-03-24T17:42:01.536Z,6.73
2023-03-24T17:45:34.252Z,8.85
2023-03-24T17:49:06.543Z,6.97
2023-03-24T17:52:49.219Z,6.63
2023-03-24T17:56:21.322Z,7.30
2023-03-24T17:59:53.384Z,8.85
2023-03-24T18:03:30.171Z,7.40
2023-03-24T18:07:02.714Z,6.70
2023-03-24T18:10:36.315Z,6.00
2023-03-24T18:14:09.345Z,6.05
2023-03-24T18:17:41.631Z,8.77
2023-03-24T18:21:14.982Z,7.57
2023-03-24T18:24:47.707Z,8.80
2023-03-24T18:28:20.061Z,6.32
2023-03-24T18:31:52.623Z,9.90
2023-03-24T18:35:25.827Z,11.20
2023-03-24T18:39:04.450Z,12.15
2023-03-24T18:42:37.730Z,16.58
2023-03-24T18:46:10.587Z,10.73
2023-03-24T18:49:42.484Z,10.63
2023-03-24T18:53:15.070Z,15.35
2023-03-24T18:56:47.032Z,10.57
2023-03-24T19:00:21.966Z,12.00
2023-03-24T19:03:54.026Z,9.68
2023-03-24T19:07:26.354Z,8.05
2023-03-24T19:10:58.497Z,9.93
2023-03-24T19:14:32.112Z,8.37
2023-03-24T19:18:04.657Z,8.95
2023-03-24T19:21:36.653Z,9.95
2023-03-24T19:25:14.496Z,8.40
2023-03-24T19:28:47.525Z,8.18
2023-03-24T19:32:21.145Z,9.18
2023-03-24T19:35:54.194Z,8.60
2023-03-24T19:39:26.513Z,9.23
2023-03-24T19:42:58.638Z,9.25
2023-03-24T19:46:30.921Z,8.57
2023-03-24T19:50:06.418Z,9.97
2023-03-24T19:53:39.135Z,8.27
2023-03-24T19:57:11.357Z,7.80
2023-03-24T20:00:44.121Z,10.05
2023-03-24T20:04:16.445Z,12.77
2023-03-24T20:07:48.667Z,9.50
2023-03-24T20:11:20.752Z,10.93
2023-03-24T20:14:56.484Z,15.13
2023-03-24T20:18:29.227Z,15.02
2023-03-24T20:22:01.156Z,12.35
2023-03-24T20:25:35.196Z,12.77
2023-03-24T20:29:07.422Z,12.03
2023-03-24T20:32:39.808Z,11.02
2023-03-24T20:36:12.129Z,11.30
2023-03-24T20:39:44.552Z,8.27
2023-03-24T20:43:16.692Z,12.65
2023-03-24T20:46:49.352Z,10.75
2023-03-24T20:50:21.269Z,9.73
2023-03-24T20:53:55.882Z,9.68
2023-03-24T20:57:32.084Z,10.20
2023-03-24T21:01:20.689Z,12.02
2023-03-24T21:04:52.898Z,9.77
2023-03-24T21:08:25.428Z,10.70
2023-03-24T21:11:57.222Z,10.38
2023-03-24T21:15:29.449Z,11.13
2023-03-24T21:19:03.874Z,8.73
2023-03-24T21:22:47.582Z,9.02
2023-03-24T21:26:20.043Z,15.68
2023-03-24T21:29:52.266Z,11.80
2023-03-24T21:33:24.787Z,10.13
2023-03-24T21:37:01.553Z,14.38
2023-03-24T21:40:33.950Z,9.67
2023-03-24T21:44:07.955Z,10.63
2023-03-24T21:47:40.347Z,16.30
2023-03-24T21:51:14.897Z,10.67
2023-03-24T21:54:46.961Z,12.77
2023-03-24T21:58:21.748Z,16.42
2023-03-24T22:01:53.621Z,10.40
2023-03-24T22:05:29.788Z,10.13
2023-03-24T22:09:06.677Z,13.52
2023-03-24T22:12:39.519Z,13.98
2023-03-24T22:16:11.649Z,11.63
2023-03-24T22:19:43.850Z,16.73
2023-03-24T22:23:15.681Z,14.50
2023-03-24T22:26:47.807Z,13.52
2023-03-24T22:30:20.252Z,11.80
2023-03-24T22:33:52.065Z,15.43
2023-03-24T22:37:24.282Z,14.20
2023-03-24T22:41:07.206Z,12.68
2023-03-24T22:44:41.038Z,10.40
2023-03-24T22:48:13.928Z,11.80
2023-03-24T22:51:46.548Z,12.23
2023-03-24T22:55:20.901Z,10.97
2023-03-24T22:58:52.719Z,11.93
2023-03-24T23:02:25.045Z,10.77
2023-03-24T23:05:59.763Z,11.75
2023-03-24T23:09:31.913Z,10.93
2023-03-24T23:13:04.261Z,10.90
2023-03-24T23:16:38.258Z,12.35
2023-03-24T23:20:13.063Z,9.93
2023-03-24T23:23:44.896Z,11.88
2023-03-24T23:27:17.497Z,14.13
2023-03-24T23:30:49.328Z,12.57
2023-03-24T23:34:21.451Z,11.82
2023-03-24T23:37:53.724Z,10.90
2023-03-24T23:41:26.092Z,9.25
2023-03-24T23:44:57.881Z,12.10
2023-03-24T23:48:33.975Z,11.65
2023-03-24T23:52:06.143Z,9.63
2023-03-24T23:55:38.332Z,9.13
2023-03-24T23:59:10.652Z,10.57
